sensor_id;sensor_type;location;lat;lon;timestamp;P1;durP1;ratioP1;P2;durP2;ratioP2
13218;SDS011;6674;49.152;11.918;2022-09-09T00:00:11;2.87;;;2.03;;
13218;SDS011;6674;49.152;11.918;2022-09-09T00:02:39;1.93;;;1.80;;
13218;SDS011;6674;49.152;11.918;2022-09-09T00:05:14;1.90;;;1.77;;
13218;SDS011;6674;49.152;11.918;2022-09-09T00:07:48;1.90;;;1.70;;
13218;SDS011;6674;49.152;11.918;2022-09-09T00:10:19;2.47;;;2.10;;
13218;SDS011;6674;49.152;11.918;2022-09-09T00:12:53;2.97;;;2.10;;
13218;SDS011;6674;49.152;11.918;2022-09-09T00:15:27;2.30;;;2.10;;
13218;SDS011;6674;49.152;11.918;2022-09-09T00:18:03;2.13;;;2.00;;
13218;SDS011;6674;49.152;11.918;2022-09-09T00:20:37;2.53;;;2.10;;
13218;SDS011;6674;49.152;11.918;2022-09-09T00:23:10;2.87;;;2.67;;
13218;SDS011;6674;49.152;11.918;2022-09-09T00:25:42;2.70;;;2.50;;
13218;SDS011;6674;49.152;11.918;2022-09-09T00:28:16;2.70;;;2.50;;
13218;SDS011;6674;49.152;11.918;2022-09-09T00:30:46;2.70;;;2.50;;
13218;SDS011;6674;49.152;11.918;2022-09-09T00:33:15;4.97;;;4.40;;
13218;SDS011;6674;49.152;11.918;2022-09-09T00:35:47;3.70;;;3.37;;
13218;SDS011;6674;49.152;11.918;2022-09-09T00:38:16;4.73;;;4.27;;
13218;SDS011;6674;49.152;11.918;2022-09-09T00:40:48;4.30;;;3.83;;
13218;SDS011;6674;49.152;11.918;2022-09-09T00:43:24;4.97;;;4.50;;
13218;SDS011;6674;49.152;11.918;2022-09-09T00:46:01;4.97;;;4.47;;
13218;SDS011;6674;49.152;11.918;2022-09-09T00:48:47;5.00;;;4.53;;
13218;SDS011;6674;49.152;11.918;2022-09-09T00:51:23;5.57;;;5.07;;
13218;SDS011;6674;49.152;11.918;2022-09-09T00:53:59;6.30;;;5.70;;
13218;SDS011;6674;49.152;11.918;2022-09-09T00:56:40;6.53;;;5.87;;
13218;SDS011;6674;49.152;11.918;2022-09-09T00:59:16;6.47;;;5.90;;
13218;SDS011;6674;49.152;11.918;2022-09-09T01:01:54;6.27;;;5.77;;
13218;SDS011;6674;49.152;11.918;2022-09-09T01:04:24;8.10;;;7.43;;
13218;SDS011;6674;49.152;11.918;2022-09-09T01:06:57;8.77;;;7.97;;
13218;SDS011;6674;49.152;11.918;2022-09-09T01:09:29;9.87;;;9.07;;
13218;SDS011;6674;49.152;11.918;2022-09-09T01:12:08;10.93;;;9.80;;
13218;SDS011;6674;49.152;11.918;2022-09-09T01:14:40;10.67;;;8.53;;
13218;SDS011;6674;49.152;11.918;2022-09-09T01:17:13;13.07;;;10.03;;
13218;SDS011;6674;49.152;11.918;2022-09-09T01:19:47;12.97;;;11.47;;
13218;SDS011;6674;49.152;11.918;2022-09-09T01:22:26;33.23;;;13.50;;
13218;SDS011;6674;49.152;11.918;2022-09-09T01:27:54;58.37;;;16.27;;
13218;SDS011;6674;49.152;11.918;2022-09-09T01:30:23;75.53;;;16.03;;
13218;SDS011;6674;49.152;11.918;2022-09-09T01:32:53;96.43;;;16.20;;
13218;SDS011;6674;49.152;11.918;2022-09-09T01:35:27;114.77;;;17.63;;
13218;SDS011;6674;49.152;11.918;2022-09-09T01:38:02;41.03;;;13.00;;
13218;SDS011;6674;49.152;11.918;2022-09-09T01:40:29;45.93;;;12.90;;
13218;SDS011;6674;49.152;11.918;2022-09-09T01:42:57;197.37;;;22.40;;
13218;SDS011;6674;49.152;11.918;2022-09-09T01:45:24;230.50;;;23.50;;
13218;SDS011;6674;49.152;11.918;2022-09-09T01:47:51;168.27;;;21.17;;
13218;SDS011;6674;49.152;11.918;2022-09-09T01:50:18;121.37;;;18.83;;
13218;SDS011;6674;49.152;11.918;2022-09-09T01:52:48;168.23;;;22.17;;
13218;SDS011;6674;49.152;11.918;2022-09-09T01:55:17;54.97;;;16.27;;
13218;SDS011;6674;49.152;11.918;2022-09-09T01:57:53;117.03;;;19.87;;
13218;SDS011;6674;49.152;11.918;2022-09-09T02:00:31;48.07;;;14.97;;
13218;SDS011;6674;49.152;11.918;2022-09-09T02:03:08;130.30;;;18.80;;
13218;SDS011;6674;49.152;11.918;2022-09-09T02:05:44;230.33;;;24.27;;
13218;SDS011;6674;49.152;11.918;2022-09-09T02:08:17;132.20;;;19.53;;
13218;SDS011;6674;49.152;11.918;2022-09-09T02:10:48;76.47;;;18.37;;
13218;SDS011;6674;49.152;11.918;2022-09-09T02:13:22;137.23;;;21.30;;
13218;SDS011;6674;49.152;11.918;2022-09-09T02:15:51;53.47;;;16.13;;
13218;SDS011;6674;49.152;11.918;2022-09-09T02:18:22;62.53;;;17.83;;
13218;SDS011;6674;49.152;11.918;2022-09-09T02:20:53;95.27;;;17.70;;
13218;SDS011;6674;49.152;11.918;2022-09-09T02:23:21;46.87;;;13.17;;
13218;SDS011;6674;49.152;11.918;2022-09-09T02:25:47;208.47;;;21.33;;
13218;SDS011;6674;49.152;11.918;2022-09-09T02:28:17;164.97;;;17.60;;
13218;SDS011;6674;49.152;11.918;2022-09-09T02:30:47;219.57;;;22.13;;
13218;SDS011;6674;49.152;11.918;2022-09-09T02:33:20;394.87;;;26.73;;
13218;SDS011;6674;49.152;11.918;2022-09-09T02:35:49;93.07;;;13.40;;
13218;SDS011;6674;49.152;11.918;2022-09-09T02:38:16;48.97;;;11.87;;
13218;SDS011;6674;49.152;11.918;2022-09-09T02:40:43;145.30;;;13.93;;
13218;SDS011;6674;49.152;11.918;2022-09-09T02:43:10;122.30;;;14.83;;
13218;SDS011;6674;49.152;11.918;2022-09-09T02:45:40;105.43;;;14.03;;
13218;SDS011;6674;49.152;11.918;2022-09-09T02:48:14;209.67;;;19.50;;
13218;SDS011;6674;49.152;11.918;2022-09-09T02:50:47;15.33;;;9.30;;
13218;SDS011;6674;49.152;11.918;2022-09-09T02:53:22;186.30;;;17.13;;
13218;SDS011;6674;49.152;11.918;2022-09-09T02:55:52;59.10;;;10.60;;
13218;SDS011;6674;49.152;11.918;2022-09-09T02:58:23;195.80;;;19.07;;
13218;SDS011;6674;49.152;11.918;2022-09-09T03:00:51;139.83;;;15.13;;
13218;SDS011;6674;49.152;11.918;2022-09-09T03:03:19;265.37;;;19.90;;
13218;SDS011;6674;49.152;11.918;2022-09-09T03:05:47;127.27;;;15.80;;
13218;SDS011;6674;49.152;11.918;2022-09-09T03:08:13;60.33;;;11.53;;
13218;SDS011;6674;49.152;11.918;2022-09-09T03:10:40;9.20;;;7.83;;
13218;SDS011;6674;49.152;11.918;2022-09-09T03:13:07;188.80;;;16.63;;
13218;SDS011;6674;49.152;11.918;2022-09-09T03:15:34;145.57;;;14.90;;
13218;SDS011;6674;49.152;11.918;2022-09-09T03:18:01;227.90;;;18.87;;
13218;SDS011;6674;49.152;11.918;2022-09-09T03:20:29;20.13;;;8.43;;
13218;SDS011;6674;49.152;11.918;2022-09-09T03:22:56;96.43;;;13.33;;
13218;SDS011;6674;49.152;11.918;2022-09-09T03:25:25;20.83;;;8.97;;
13218;SDS011;6674;49.152;11.918;2022-09-09T03:27:53;139.53;;;15.90;;
13218;SDS011;6674;49.152;11.918;2022-09-09T03:30:20;38.33;;;11.37;;
13218;SDS011;6674;49.152;11.918;2022-09-09T03:32:47;9.37;;;8.47;;
13218;SDS011;6674;49.152;11.918;2022-09-09T03:35:14;9.30;;;8.43;;
13218;SDS011;6674;49.152;11.918;2022-09-09T03:37:42;8.30;;;7.70;;
13218;SDS011;6674;49.152;11.918;2022-09-09T03:40:09;41.33;;;10.90;;
13218;SDS011;6674;49.152;11.918;2022-09-09T03:42:37;123.70;;;15.03;;
13218;SDS011;6674;49.152;11.918;2022-09-09T03:45:04;15.37;;;9.10;;
13218;SDS011;6674;49.152;11.918;2022-09-09T03:47:31;59.37;;;12.57;;
13218;SDS011;6674;49.152;11.918;2022-09-09T03:49:58;198.90;;;20.10;;
13218;SDS011;6674;49.152;11.918;2022-09-09T03:52:25;162.77;;;21.30;;
13218;SDS011;6674;49.152;11.918;2022-09-09T03:54:53;197.57;;;22.47;;
13218;SDS011;6674;49.152;11.918;2022-09-09T03:57:21;65.90;;;16.63;;
13218;SDS011;6674;49.152;11.918;2022-09-09T03:59:48;42.87;;;14.63;;
13218;SDS011;6674;49.152;11.918;2022-09-09T04:02:15;126.47;;;20.57;;
13218;SDS011;6674;49.152;11.918;2022-09-09T04:04:41;220.03;;;25.80;;
13218;SDS011;6674;49.152;11.918;2022-09-09T04:07:08;294.87;;;30.10;;
13218;SDS011;6674;49.152;11.918;2022-09-09T04:09:35;283.13;;;27.47;;
13218;SDS011;6674;49.152;11.918;2022-09-09T04:12:03;122.53;;;21.80;;
13218;SDS011;6674;49.152;11.918;2022-09-09T04:14:31;165.60;;;24.63;;
13218;SDS011;6674;49.152;11.918;2022-09-09T04:16:57;396.93;;;33.57;;
13218;SDS011;6674;49.152;11.918;2022-09-09T04:19:24;453.73;;;35.73;;
13218;SDS011;6674;49.152;11.918;2022-09-09T04:21:51;179.20;;;23.30;;
13218;SDS011;6674;49.152;11.918;2022-09-09T04:24:18;135.23;;;24.40;;
13218;SDS011;6674;49.152;11.918;2022-09-09T04:26:45;153.40;;;23.43;;
13218;SDS011;6674;49.152;11.918;2022-09-09T04:29:13;214.53;;;27.70;;
13218;SDS011;6674;49.152;11.918;2022-09-09T04:31:40;249.40;;;28.70;;
13218;SDS011;6674;49.152;11.918;2022-09-09T04:34:07;419.83;;;34.23;;
13218;SDS011;6674;49.152;11.918;2022-09-09T04:36:34;177.40;;;23.13;;
13218;SDS011;6674;49.152;11.918;2022-09-09T04:39:01;177.63;;;23.63;;
13218;SDS011;6674;49.152;11.918;2022-09-09T04:41:28;79.17;;;19.30;;
13218;SDS011;6674;49.152;11.918;2022-09-09T04:43:56;176.53;;;24.77;;
13218;SDS011;6674;49.152;11.918;2022-09-09T04:46:25;83.37;;;20.60;;
13218;SDS011;6674;49.152;11.918;2022-09-09T04:48:52;144.73;;;22.27;;
13218;SDS011;6674;49.152;11.918;2022-09-09T04:51:19;124.70;;;20.87;;
13218;SDS011;6674;49.152;11.918;2022-09-09T04:53:46;150.43;;;24.87;;
13218;SDS011;6674;49.152;11.918;2022-09-09T04:56:14;36.63;;;17.60;;
13218;SDS011;6674;49.152;11.918;2022-09-09T04:58:42;68.47;;;19.90;;
13218;SDS011;6674;49.152;11.918;2022-09-09T05:01:09;69.83;;;19.60;;
13218;SDS011;6674;49.152;11.918;2022-09-09T05:03:42;17.57;;;15.80;;
13218;SDS011;6674;49.152;11.918;2022-09-09T05:06:10;65.27;;;19.10;;
13218;SDS011;6674;49.152;11.918;2022-09-09T05:08:39;16.47;;;14.97;;
13218;SDS011;6674;49.152;11.918;2022-09-09T05:11:12;17.57;;;15.83;;
13218;SDS011;6674;49.152;11.918;2022-09-09T05:13:40;15.50;;;14.17;;
13218;SDS011;6674;49.152;11.918;2022-09-09T05:16:07;69.67;;;18.83;;
13218;SDS011;6674;49.152;11.918;2022-09-09T05:18:36;46.53;;;15.33;;
13218;SDS011;6674;49.152;11.918;2022-09-09T05:21:04;75.93;;;17.00;;
13218;SDS011;6674;49.152;11.918;2022-09-09T05:23:31;15.43;;;13.93;;
13218;SDS011;6674;49.152;11.918;2022-09-09T05:25:59;54.00;;;15.37;;
13218;SDS011;6674;49.152;11.918;2022-09-09T05:28:26;23.60;;;14.30;;
13218;SDS011;6674;49.152;11.918;2022-09-09T05:30:55;75.83;;;15.67;;
13218;SDS011;6674;49.152;11.918;2022-09-09T05:33:22;162.97;;;21.40;;
13218;SDS011;6674;49.152;11.918;2022-09-09T05:35:54;54.23;;;15.90;;
13218;SDS011;6674;49.152;11.918;2022-09-09T05:38:23;63.17;;;18.17;;
13218;SDS011;6674;49.152;11.918;2022-09-09T05:40:50;77.10;;;21.17;;
13218;SDS011;6674;49.152;11.918;2022-09-09T05:43:17;115.27;;;22.00;;
13218;SDS011;6674;49.152;11.918;2022-09-09T05:45:45;84.23;;;20.80;;
13218;SDS011;6674;49.152;11.918;2022-09-09T05:48:12;108.57;;;19.53;;
13218;SDS011;6674;49.152;11.918;2022-09-09T05:50:40;60.83;;;18.47;;
13218;SDS011;6674;49.152;11.918;2022-09-09T05:53:07;90.70;;;20.23;;
13218;SDS011;6674;49.152;11.918;2022-09-09T05:55:35;38.13;;;19.50;;
13218;SDS011;6674;49.152;11.918;2022-09-09T05:58:02;41.00;;;22.27;;
13218;SDS011;6674;49.152;11.918;2022-09-09T06:00:29;17.87;;;15.97;;
13218;SDS011;6674;49.152;11.918;2022-09-09T06:02:56;49.43;;;19.30;;
13218;SDS011;6674;49.152;11.918;2022-09-09T06:05:23;98.40;;;21.57;;
13218;SDS011;6674;49.152;11.918;2022-09-09T06:07:52;98.77;;;22.23;;
13218;SDS011;6674;49.152;11.918;2022-09-09T06:10:19;39.40;;;18.37;;
13218;SDS011;6674;49.152;11.918;2022-09-09T06:12:47;58.73;;;19.30;;
13218;SDS011;6674;49.152;11.918;2022-09-09T06:15:14;13.77;;;12.33;;
13218;SDS011;6674;49.152;11.918;2022-09-09T06:17:41;51.43;;;19.13;;
13218;SDS011;6674;49.152;11.918;2022-09-09T06:20:08;17.63;;;14.23;;
13218;SDS011;6674;49.152;11.918;2022-09-09T06:22:38;22.70;;;16.97;;
13218;SDS011;6674;49.152;11.918;2022-09-09T06:25:06;19.93;;;16.67;;
13218;SDS011;6674;49.152;11.918;2022-09-09T06:27:33;16.20;;;14.60;;
13218;SDS011;6674;49.152;11.918;2022-09-09T06:30:01;18.53;;;16.63;;
13218;SDS011;6674;49.152;11.918;2022-09-09T06:32:29;33.23;;;18.47;;
13218;SDS011;6674;49.152;11.918;2022-09-09T06:34:55;22.60;;;17.67;;
13218;SDS011;6674;49.152;11.918;2022-09-09T06:37:22;29.00;;;18.23;;
13218;SDS011;6674;49.152;11.918;2022-09-09T06:39:49;20.70;;;18.43;;
13218;SDS011;6674;49.152;11.918;2022-09-09T06:42:15;20.13;;;18.20;;
13218;SDS011;6674;49.152;11.918;2022-09-09T06:44:42;19.97;;;18.10;;
13218;SDS011;6674;49.152;11.918;2022-09-09T06:47:10;22.20;;;20.20;;
13218;SDS011;6674;49.152;11.918;2022-09-09T06:49:37;23.40;;;21.23;;
13218;SDS011;6674;49.152;11.918;2022-09-09T06:52:03;21.40;;;19.53;;
13218;SDS011;6674;49.152;11.918;2022-09-09T06:54:30;21.30;;;19.40;;
13218;SDS011;6674;49.152;11.918;2022-09-09T06:56:57;22.37;;;20.37;;
13218;SDS011;6674;49.152;11.918;2022-09-09T06:59:25;23.30;;;21.10;;
13218;SDS011;6674;49.152;11.918;2022-09-09T07:01:52;21.50;;;19.63;;
13218;SDS011;6674;49.152;11.918;2022-09-09T07:04:21;18.10;;;16.50;;
13218;SDS011;6674;49.152;11.918;2022-09-09T07:06:47;17.37;;;15.80;;
13218;SDS011;6674;49.152;11.918;2022-09-09T07:09:14;17.20;;;15.70;;
13218;SDS011;6674;49.152;11.918;2022-09-09T07:11:42;15.70;;;14.33;;
13218;SDS011;6674;49.152;11.918;2022-09-09T07:14:10;14.67;;;13.37;;
13218;SDS011;6674;49.152;11.918;2022-09-09T07:16:39;13.93;;;12.80;;
13218;SDS011;6674;49.152;11.918;2022-09-09T07:19:06;12.53;;;11.47;;
13218;SDS011;6674;49.152;11.918;2022-09-09T07:21:34;13.20;;;12.10;;
13218;SDS011;6674;49.152;11.918;2022-09-09T07:24:01;11.03;;;10.17;;
13218;SDS011;6674;49.152;11.918;2022-09-09T07:26:30;11.50;;;10.40;;
13218;SDS011;6674;49.152;11.918;2022-09-09T07:28:57;11.87;;;10.80;;
13218;SDS011;6674;49.152;11.918;2022-09-09T07:31:24;11.23;;;10.33;;
13218;SDS011;6674;49.152;11.918;2022-09-09T07:33:52;11.67;;;10.67;;
13218;SDS011;6674;49.152;11.918;2022-09-09T07:36:20;11.30;;;10.40;;
13218;SDS011;6674;49.152;11.918;2022-09-09T07:38:50;10.80;;;9.90;;
13218;SDS011;6674;49.152;11.918;2022-09-09T07:41:19;11.10;;;10.13;;
13218;SDS011;6674;49.152;11.918;2022-09-09T07:43:48;11.20;;;10.20;;
13218;SDS011;6674;49.152;11.918;2022-09-09T07:46:16;9.80;;;9.03;;
13218;SDS011;6674;49.152;11.918;2022-09-09T07:48:44;8.60;;;7.90;;
13218;SDS011;6674;49.152;11.918;2022-09-09T07:51:12;8.70;;;8.00;;
13218;SDS011;6674;49.152;11.918;2022-09-09T07:53:42;8.63;;;7.93;;
13218;SDS011;6674;49.152;11.918;2022-09-09T07:56:12;10.37;;;9.50;;
13218;SDS011;6674;49.152;11.918;2022-09-09T07:58:42;9.33;;;8.50;;
13218;SDS011;6674;49.152;11.918;2022-09-09T08:01:12;8.00;;;7.20;;
13218;SDS011;6674;49.152;11.918;2022-09-09T08:03:42;8.97;;;8.17;;
13218;SDS011;6674;49.152;11.918;2022-09-09T08:06:09;8.43;;;7.83;;
13218;SDS011;6674;49.152;11.918;2022-09-09T08:08:37;9.40;;;8.60;;
13218;SDS011;6674;49.152;11.918;2022-09-09T08:11:07;9.87;;;9.00;;
13218;SDS011;6674;49.152;11.918;2022-09-09T08:13:37;9.07;;;8.27;;
13218;SDS011;6674;49.152;11.918;2022-09-09T08:16:06;8.57;;;7.87;;
13218;SDS011;6674;49.152;11.918;2022-09-09T08:18:34;7.30;;;6.70;;
13218;SDS011;6674;49.152;11.918;2022-09-09T08:21:04;7.60;;;7.00;;
13218;SDS011;6674;49.152;11.918;2022-09-09T08:23:33;8.00;;;7.30;;
13218;SDS011;6674;49.152;11.918;2022-09-09T08:26:03;6.87;;;6.33;;
13218;SDS011;6674;49.152;11.918;2022-09-09T08:28:31;6.37;;;5.80;;
13218;SDS011;6674;49.152;11.918;2022-09-09T08:31:05;6.27;;;5.70;;
13218;SDS011;6674;49.152;11.918;2022-09-09T08:33:34;6.00;;;5.60;;
13218;SDS011;6674;49.152;11.918;2022-09-09T08:36:02;5.70;;;5.20;;
13218;SDS011;6674;49.152;11.918;2022-09-09T08:38:29;5.87;;;5.40;;
13218;SDS011;6674;49.152;11.918;2022-09-09T08:40:57;4.87;;;4.47;;
13218;SDS011;6674;49.152;11.918;2022-09-09T08:43:32;4.87;;;4.47;;
13218;SDS011;6674;49.152;11.918;2022-09-09T08:46:00;4.07;;;3.77;;
13218;SDS011;6674;49.152;11.918;2022-09-09T08:48:41;4.40;;;4.00;;
13218;SDS011;6674;49.152;11.918;2022-09-09T08:51:14;4.23;;;3.70;;
13218;SDS011;6674;49.152;11.918;2022-09-09T08:53:42;3.43;;;3.13;;
13218;SDS011;6674;49.152;11.918;2022-09-09T08:56:13;3.53;;;3.23;;
13218;SDS011;6674;49.152;11.918;2022-09-09T08:58:44;4.10;;;2.50;;
13218;SDS011;6674;49.152;11.918;2022-09-09T09:01:29;3.73;;;2.83;;
13218;SDS011;6674;49.152;11.918;2022-09-09T09:04:07;3.13;;;2.50;;
13218;SDS011;6674;49.152;11.918;2022-09-09T09:06:46;2.83;;;2.63;;
13218;SDS011;6674;49.152;11.918;2022-09-09T09:09:21;2.67;;;2.40;;
13218;SDS011;6674;49.152;11.918;2022-09-09T09:11:54;2.30;;;2.10;;
13218;SDS011;6674;49.152;11.918;2022-09-09T09:14:26;4.03;;;2.30;;
13218;SDS011;6674;49.152;11.918;2022-09-09T09:16:58;3.00;;;2.30;;
13218;SDS011;6674;49.152;11.918;2022-09-09T09:19:26;3.03;;;2.10;;
13218;SDS011;6674;49.152;11.918;2022-09-09T09:21:57;2.77;;;2.00;;
13218;SDS011;6674;49.152;11.918;2022-09-09T09:24:29;2.47;;;2.20;;
13218;SDS011;6674;49.152;11.918;2022-09-09T09:27:07;2.97;;;2.10;;
13218;SDS011;6674;49.152;11.918;2022-09-09T09:29:39;3.57;;;2.20;;
13218;SDS011;6674;49.152;11.918;2022-09-09T09:32:11;2.30;;;1.70;;
13218;SDS011;6674;49.152;11.918;2022-09-09T09:34:42;3.13;;;2.00;;
13218;SDS011;6674;49.152;11.918;2022-09-09T09:37:15;2.10;;;1.90;;
13218;SDS011;6674;49.152;11.918;2022-09-09T09:39:45;2.67;;;1.70;;
13218;SDS011;6674;49.152;11.918;2022-09-09T09:42:13;1.90;;;1.70;;
13218;SDS011;6674;49.152;11.918;2022-09-09T09:44:42;1.90;;;1.50;;
13218;SDS011;6674;49.152;11.918;2022-09-09T09:47:12;2.23;;;1.50;;
13218;SDS011;6674;49.152;11.918;2022-09-09T09:49:39;2.87;;;1.47;;
13218;SDS011;6674;49.152;11.918;2022-09-09T09:52:20;3.47;;;1.47;;
13218;SDS011;6674;49.152;11.918;2022-09-09T09:54:49;1.80;;;1.40;;
13218;SDS011;6674;49.152;11.918;2022-09-09T09:57:16;1.50;;;1.10;;
13218;SDS011;6674;49.152;11.918;2022-09-09T09:59:48;1.93;;;1.70;;
13218;SDS011;6674;49.152;11.918;2022-09-09T10:02:18;2.07;;;1.73;;
13218;SDS011;6674;49.152;11.918;2022-09-09T10:04:59;2.47;;;1.50;;
13218;SDS011;6674;49.152;11.918;2022-09-09T10:07:27;2.73;;;1.50;;
13218;SDS011;6674;49.152;11.918;2022-09-09T10:09:54;2.03;;;1.40;;
13218;SDS011;6674;49.152;11.918;2022-09-09T10:12:30;2.67;;;1.30;;
13218;SDS011;6674;49.152;11.918;2022-09-09T10:15:10;2.07;;;1.40;;
13218;SDS011;6674;49.152;11.918;2022-09-09T10:17:54;2.20;;;1.50;;
13218;SDS011;6674;49.152;11.918;2022-09-09T10:20:30;2.27;;;1.63;;
13218;SDS011;6674;49.152;11.918;2022-09-09T10:23:07;1.70;;;1.40;;
13218;SDS011;6674;49.152;11.918;2022-09-09T10:25:47;1.50;;;1.40;;
13218;SDS011;6674;49.152;11.918;2022-09-09T10:28:37;1.97;;;1.50;;
13218;SDS011;6674;49.152;11.918;2022-09-09T10:31:17;2.87;;;1.60;;
13218;SDS011;6674;49.152;11.918;2022-09-09T10:33:55;1.80;;;1.27;;
13218;SDS011;6674;49.152;11.918;2022-09-09T10:36:28;1.47;;;1.27;;
13218;SDS011;6674;49.152;11.918;2022-09-09T10:38:57;1.97;;;1.00;;
13218;SDS011;6674;49.152;11.918;2022-09-09T10:41:32;2.17;;;0.90;;
13218;SDS011;6674;49.152;11.918;2022-09-09T10:44:21;1.57;;;0.80;;
13218;SDS011;6674;49.152;11.918;2022-09-09T10:47:13;1.40;;;0.70;;
13218;SDS011;6674;49.152;11.918;2022-09-09T10:50:00;1.47;;;0.80;;
13218;SDS011;6674;49.152;11.918;2022-09-09T10:52:39;2.10;;;0.60;;
13218;SDS011;6674;49.152;11.918;2022-09-09T10:55:16;1.10;;;0.60;;
13218;SDS011;6674;49.152;11.918;2022-09-09T10:57:45;0.80;;;0.50;;
13218;SDS011;6674;49.152;11.918;2022-09-09T11:00:15;1.20;;;0.70;;
13218;SDS011;6674;49.152;11.918;2022-09-09T11:02:44;0.90;;;0.60;;
13218;SDS011;6674;49.152;11.918;2022-09-09T11:05:16;0.80;;;0.70;;
13218;SDS011;6674;49.152;11.918;2022-09-09T11:07:47;1.60;;;0.60;;
13218;SDS011;6674;49.152;11.918;2022-09-09T11:10:20;1.30;;;0.60;;
13218;SDS011;6674;49.152;11.918;2022-09-09T11:12:51;2.77;;;0.90;;
13218;SDS011;6674;49.152;11.918;2022-09-09T11:15:23;1.53;;;0.53;;
13218;SDS011;6674;49.152;11.918;2022-09-09T11:17:56;1.50;;;0.60;;
13218;SDS011;6674;49.152;11.918;2022-09-09T11:20:28;1.00;;;0.80;;
13218;SDS011;6674;49.152;11.918;2022-09-09T11:22:58;1.23;;;0.73;;
13218;SDS011;6674;49.152;11.918;2022-09-09T11:25:29;1.87;;;0.60;;
13218;SDS011;6674;49.152;11.918;2022-09-09T11:28:04;1.17;;;0.70;;
13218;SDS011;6674;49.152;11.918;2022-09-09T11:30:43;0.77;;;0.60;;
13218;SDS011;6674;49.152;11.918;2022-09-09T11:33:34;1.37;;;0.60;;
13218;SDS011;6674;49.152;11.918;2022-09-09T11:36:21;2.67;;;0.67;;
13218;SDS011;6674;49.152;11.918;2022-09-09T11:39:00;1.37;;;0.53;;
13218;SDS011;6674;49.152;11.918;2022-09-09T11:41:34;1.50;;;0.60;;
13218;SDS011;6674;49.152;11.918;2022-09-09T11:44:09;2.53;;;0.90;;
13218;SDS011;6674;49.152;11.918;2022-09-09T11:46:37;0.97;;;0.57;;
13218;SDS011;6674;49.152;11.918;2022-09-09T11:49:21;3.63;;;0.90;;
13218;SDS011;6674;49.152;11.918;2022-09-09T11:51:54;1.43;;;0.80;;
13218;SDS011;6674;49.152;11.918;2022-09-09T11:54:28;2.13;;;0.90;;
13218;SDS011;6674;49.152;11.918;2022-09-09T11:56:56;1.43;;;0.60;;
13218;SDS011;6674;49.152;11.918;2022-09-09T11:59:23;0.90;;;0.70;;
13218;SDS011;6674;49.152;11.918;2022-09-09T12:01:54;1.10;;;0.70;;
13218;SDS011;6674;49.152;11.918;2022-09-09T12:04:32;0.87;;;0.70;;
13218;SDS011;6674;49.152;11.918;2022-09-09T12:07:22;1.60;;;0.70;;
13218;SDS011;6674;49.152;11.918;2022-09-09T12:09:56;0.97;;;0.63;;
13218;SDS011;6674;49.152;11.918;2022-09-09T12:12:29;2.20;;;0.80;;
13218;SDS011;6674;49.152;11.918;2022-09-09T12:15:02;1.73;;;0.77;;
13218;SDS011;6674;49.152;11.918;2022-09-09T12:17:46;1.10;;;1.00;;
13218;SDS011;6674;49.152;11.918;2022-09-09T12:20:17;1.53;;;1.00;;
13218;SDS011;6674;49.152;11.918;2022-09-09T12:23:13;1.10;;;0.73;;
13218;SDS011;6674;49.152;11.918;2022-09-09T12:25:48;1.80;;;0.70;;
13218;SDS011;6674;49.152;11.918;2022-09-09T12:28:22;2.27;;;0.90;;
13218;SDS011;6674;49.152;11.918;2022-09-09T12:30:55;0.70;;;0.63;;
13218;SDS011;6674;49.152;11.918;2022-09-09T12:33:33;0.67;;;0.67;;
13218;SDS011;6674;49.152;11.918;2022-09-09T12:36:01;1.03;;;1.00;;
13218;SDS011;6674;49.152;11.918;2022-09-09T12:38:32;2.03;;;1.00;;
13218;SDS011;6674;49.152;11.918;2022-09-09T12:41:01;1.60;;;0.80;;
13218;SDS011;6674;49.152;11.918;2022-09-09T12:43:27;2.50;;;0.90;;
13218;SDS011;6674;49.152;11.918;2022-09-09T12:45:55;2.47;;;0.90;;
13218;SDS011;6674;49.152;11.918;2022-09-09T12:48:27;1.40;;;1.00;;
13218;SDS011;6674;49.152;11.918;2022-09-09T12:50:58;1.90;;;1.10;;
13218;SDS011;6674;49.152;11.918;2022-09-09T12:53:26;3.03;;;1.13;;
13218;SDS011;6674;49.152;11.918;2022-09-09T12:55:58;1.63;;;1.23;;
13218;SDS011;6674;49.152;11.918;2022-09-09T12:58:27;3.43;;;1.10;;
13218;SDS011;6674;49.152;11.918;2022-09-09T13:00:58;2.17;;;1.23;;
13218;SDS011;6674;49.152;11.918;2022-09-09T13:03:26;1.23;;;1.00;;
13218;SDS011;6674;49.152;11.918;2022-09-09T13:05:53;2.00;;;1.07;;
13218;SDS011;6674;49.152;11.918;2022-09-09T13:08:25;1.30;;;1.20;;
13218;SDS011;6674;49.152;11.918;2022-09-09T13:10:53;1.53;;;0.90;;
13218;SDS011;6674;49.152;11.918;2022-09-09T13:13:23;1.30;;;1.07;;
13218;SDS011;6674;49.152;11.918;2022-09-09T13:15:55;1.87;;;1.20;;
13218;SDS011;6674;49.152;11.918;2022-09-09T13:18:23;1.20;;;1.10;;
13218;SDS011;6674;49.152;11.918;2022-09-09T13:20:52;2.53;;;1.40;;
13218;SDS011;6674;49.152;11.918;2022-09-09T13:23:19;1.90;;;0.90;;
13218;SDS011;6674;49.152;11.918;2022-09-09T13:25:54;1.33;;;1.00;;
13218;SDS011;6674;49.152;11.918;2022-09-09T13:28:24;1.40;;;1.20;;
13218;SDS011;6674;49.152;11.918;2022-09-09T13:30:58;1.20;;;0.77;;
13218;SDS011;6674;49.152;11.918;2022-09-09T13:33:32;1.87;;;1.13;;
13218;SDS011;6674;49.152;11.918;2022-09-09T13:36:02;1.67;;;0.93;;
13218;SDS011;6674;49.152;11.918;2022-09-09T13:38:31;1.43;;;0.80;;
13218;SDS011;6674;49.152;11.918;2022-09-09T13:41:00;2.10;;;1.00;;
13218;SDS011;6674;49.152;11.918;2022-09-09T13:43:31;1.33;;;0.87;;
13218;SDS011;6674;49.152;11.918;2022-09-09T13:46:01;1.23;;;0.97;;
13218;SDS011;6674;49.152;11.918;2022-09-09T13:48:29;3.00;;;1.00;;
13218;SDS011;6674;49.152;11.918;2022-09-09T13:50:57;1.07;;;0.93;;
13218;SDS011;6674;49.152;11.918;2022-09-09T13:53:26;1.43;;;1.00;;
13218;SDS011;6674;49.152;11.918;2022-09-09T13:55:53;1.00;;;0.97;;
13218;SDS011;6674;49.152;11.918;2022-09-09T13:58:20;1.40;;;1.10;;
13218;SDS011;6674;49.152;11.918;2022-09-09T14:00:49;2.30;;;1.10;;
13218;SDS011;6674;49.152;11.918;2022-09-09T14:03:16;1.80;;;1.00;;
13218;SDS011;6674;49.152;11.918;2022-09-09T14:05:42;2.33;;;1.07;;
13218;SDS011;6674;49.152;11.918;2022-09-09T14:08:11;2.23;;;1.40;;
13218;SDS011;6674;49.152;11.918;2022-09-09T14:10:42;2.27;;;1.23;;
13218;SDS011;6674;49.152;11.918;2022-09-09T14:13:09;1.87;;;1.00;;
13218;SDS011;6674;49.152;11.918;2022-09-09T14:15:37;1.43;;;1.13;;
13218;SDS011;6674;49.152;11.918;2022-09-09T14:18:05;2.37;;;1.40;;
13218;SDS011;6674;49.152;11.918;2022-09-09T14:20:31;2.60;;;1.00;;
13218;SDS011;6674;49.152;11.918;2022-09-09T14:22:58;1.53;;;0.90;;
13218;SDS011;6674;49.152;11.918;2022-09-09T14:25:24;0.90;;;0.80;;
13218;SDS011;6674;49.152;11.918;2022-09-09T14:27:52;2.87;;;1.27;;
13218;SDS011;6674;49.152;11.918;2022-09-09T14:30:19;2.37;;;1.40;;
13218;SDS011;6674;49.152;11.918;2022-09-09T14:32:45;1.70;;;1.10;;
13218;SDS011;6674;49.152;11.918;2022-09-09T14:35:13;2.07;;;1.13;;
13218;SDS011;6674;49.152;11.918;2022-09-09T14:37:42;1.63;;;1.00;;
13218;SDS011;6674;49.152;11.918;2022-09-09T14:40:09;1.23;;;0.90;;
13218;SDS011;6674;49.152;11.918;2022-09-09T14:42:36;1.37;;;0.97;;
13218;SDS011;6674;49.152;11.918;2022-09-09T14:45:03;2.10;;;1.30;;
13218;SDS011;6674;49.152;11.918;2022-09-09T14:47:30;1.93;;;1.00;;
13218;SDS011;6674;49.152;11.918;2022-09-09T14:49:57;1.47;;;1.00;;
13218;SDS011;6674;49.152;11.918;2022-09-09T14:52:27;1.07;;;0.97;;
13218;SDS011;6674;49.152;11.918;2022-09-09T14:54:54;2.50;;;1.13;;